Time;durP1;ratioP1;P1;durP2;ratioP2;P2;SDS_P1;SDS_P2;PMS_P1;PMS_P2;Temp;Humidity;BMP_temperature;BMP_pressure;BME280_temperature;BME280_humidity;BME280_pressure;Samples;Min_cycle;Max_cycle;Signal;HPM_P1;HPM_P2
2021/05/31 00:02:21;;;;;;;7.53;3.35;;;15.70;72.60;;;;;;5095930;28;20039;-37
2021/05/31 00:04:47;;;;;;;4.25;2.50;;;15.70;72.60;;;;;;5095446;28;20024;-46
2021/05/31 00:07:17;;;;;;;4.45;1.88;;;15.80;72.50;;;;;;5095966;28;20059;-36
2021/05/31 00:09:43;;;;;;;6.28;2.97;;;15.80;72.20;;;;;;5095891;28;20032;-45
2021/05/31 00:12:12;;;;;;;2.08;1.75;;;15.80;72.20;;;;;;5095762;28;20358;-37
2021/05/31 00:14:37;;;;;;;2.92;1.60;;;15.80;72.10;;;;;;5095724;28;20024;-50
2021/05/31 00:17:04;;;;;;;2.83;1.55;;;15.80;71.90;;;;;;5095336;28;20380;-46
2021/05/31 00:19:29;;;;;;;1.52;1.42;;;15.80;71.90;;;;;;5095500;28;20030;-46
2021/05/31 00:21:55;;;;;;;5.68;3.03;;;15.80;71.90;;;;;;5095663;28;20028;-36
2021/05/31 00:24:21;;;;;;;2.13;1.50;;;15.80;71.80;;;;;;5095465;28;20060;-37
2021/05/31 00:26:47;;;;;;;2.50;1.75;;;15.80;71.90;;;;;;5095511;28;20028;-36
2021/05/31 00:29:13;;;;;;;4.43;2.05;;;15.80;71.80;;;;;;5095414;28;20032;-37
2021/05/31 00:31:39;;;;;;;4.05;2.22;;;15.80;71.90;;;;;;5095708;28;20044;-45
2021/05/31 00:34:05;;;;;;;5.60;2.80;;;15.80;72.00;;;;;;5095372;28;20055;-45
2021/05/31 00:36:30;;;;;;;5.22;2.88;;;15.80;72.20;;;;;;5095574;28;20052;-36
2021/05/31 00:38:56;;;;;;;2.67;1.90;;;15.80;72.10;;;;;;5099098;28;20032;-37
2021/05/31 00:41:23;;;;;;;6.05;2.22;;;15.80;72.00;;;;;;5099261;28;20024;-46
2021/05/31 00:43:50;;;;;;;2.60;1.88;;;15.80;72.00;;;;;;5099072;28;20036;-36
2021/05/31 00:46:15;;;;;;;3.65;2.00;;;15.80;72.20;;;;;;5099310;28;20032;-45
2021/05/31 00:48:41;;;;;;;3.88;1.98;;;15.90;72.10;;;;;;5099317;28;20032;-46
2021/05/31 00:51:12;;;;;;;2.20;1.95;;;15.80;72.00;;;;;;5099011;28;20035;-37
2021/05/31 00:53:39;;;;;;;2.03;1.80;;;15.90;72.40;;;;;;5099226;28;20035;-50
2021/05/31 00:56:05;;;;;;;2.80;1.85;;;15.90;72.20;;;;;;5098844;28;20046;-36
2021/05/31 00:58:31;;;;;;;4.70;2.08;;;15.80;72.00;;;;;;5098578;28;20050;-48
2021/05/31 01:00:58;;;;;;;2.13;1.60;;;15.80;72.00;;;;;;5098898;28;20063;-44
2021/05/31 01:03:25;;;;;;;1.77;1.42;;;15.80;72.10;;;;;;5098671;28;20107;-37
2021/05/31 01:05:51;;;;;;;1.92;1.27;;;15.90;71.90;;;;;;5098851;28;20047;-36
2021/05/31 01:08:42;;;;;;;4.93;2.20;;;15.80;71.70;;;;;;5098876;28;20120;-37
2021/05/31 01:11:41;;;;;;;1.60;1.50;;;15.80;71.80;;;;;;5098701;28;20024;-37
2021/05/31 01:14:16;;;;;;;2.45;1.65;;;15.80;72.00;;;;;;5098843;28;20071;-45
2021/05/31 01:17:12;;;;;;;2.55;1.40;;;15.80;72.80;;;;;;5098542;28;20046;-45
2021/05/31 01:19:53;;;;;;;3.85;2.10;;;15.80;72.40;;;;;;5096268;28;20072;-36
2021/05/31 01:22:36;;;;;;;2.85;2.15;;;15.80;72.50;;;;;;5098605;28;20052;-37
2021/05/31 01:25:08;;;;;;;2.25;1.80;;;15.80;72.50;;;;;;5098596;28;20189;-47
2021/05/31 01:28:00;;;;;;;2.13;1.70;;;15.80;72.60;;;;;;5098644;28;20501;-47
2021/05/31 01:30:25;;;;;;;2.05;1.70;;;15.80;72.80;;;;;;5089610;28;20336;-37
2021/05/31 01:32:53;;;;;;;3.40;2.15;;;15.80;72.80;;;;;;5098057;28;20042;-37
2021/05/31 01:35:33;;;;;;;4.63;1.70;;;15.80;73.00;;;;;;5096812;28;20044;-46
2021/05/31 01:38:01;;;;;;;4.15;2.30;;;15.80;72.90;;;;;;5097898;28;20401;-44
2021/05/31 01:40:28;;;;;;;3.90;2.20;;;15.80;72.90;;;;;;5098134;28;20051;-47
2021/05/31 01:42:57;;;;;;;6.38;3.78;;;15.80;72.90;;;;;;5097687;28;20103;-36
2021/05/31 01:45:23;;;;;;;7.10;3.25;;;15.80;73.00;;;;;;5097959;28;20032;-37
2021/05/31 01:47:49;;;;;;;4.15;2.50;;;15.80;72.90;;;;;;5097987;28;20028;-46
2021/05/31 01:50:16;;;;;;;4.43;2.13;;;15.70;73.00;;;;;;5098038;28;20038;-37
2021/05/31 01:52:44;;;;;;;2.67;2.05;;;15.80;73.20;;;;;;5098221;28;20107;-36
2021/05/31 01:55:11;;;;;;;3.33;2.42;;;15.80;73.40;;;;;;5098333;28;20362;-38
2021/05/31 01:57:37;;;;;;;2.30;1.98;;;15.70;73.40;;;;;;5097978;28;20407;-36
2021/05/31 02:00:07;;;;;;;3.45;2.50;;;15.70;73.50;;;;;;5097600;28;20032;-46
2021/05/31 02:02:33;;;;;;;3.38;2.22;;;15.70;73.60;;;;;;5097997;28;20055;-37
2021/05/31 02:04:58;;;;;;;3.90;2.10;;;15.80;73.60;;;;;;5097535;28;20071;-38
2021/05/31 02:07:24;;;;;;;5.25;1.90;;;15.70;73.70;;;;;;5097490;28;20054;-37
2021/05/31 02:09:50;;;;;;;3.60;1.90;;;15.80;74.00;;;;;;5097694;28;20036;-38
2021/05/31 02:12:20;;;;;;;11.02;2.42;;;15.80;74.00;;;;;;5097731;28;20047;-37
2021/05/31 02:14:46;;;;;;;;;;;15.80;74.00;;;;;;5097636;28;20051;-45
2021/05/31 02:17:31;;;;;;;8.27;2.22;;;15.80;73.60;;;;;;5097428;28;19907;-36
2021/05/31 02:20:02;;;;;;;3.53;2.17;;;15.70;73.90;;;;;;5097366;28;20024;-45
2021/05/31 02:22:30;;;;;;;3.53;2.30;;;15.70;74.10;;;;;;5097151;28;20016;-37
2021/05/31 02:24:57;;;;;;;2.97;2.30;;;15.70;74.10;;;;;;5096979;28;20031;-37
2021/05/31 02:27:23;;;;;;;2.67;2.03;;;15.70;74.10;;;;;;5097330;28;20028;-36
2021/05/31 02:29:49;;;;;;;8.15;3.35;;;15.70;74.10;;;;;;5097317;28;20024;-37
2021/05/31 02:32:15;;;;;;;4.90;2.72;;;15.70;74.10;;;;;;5097201;28;20027;-37
2021/05/31 02:34:41;;;;;;;8.55;3.92;;;15.70;74.10;;;;;;5097207;28;20024;-36
2021/05/31 02:37:08;;;;;;;7.25;3.42;;;15.70;73.90;;;;;;5096314;28;20547;-46
2021/05/31 02:39:35;;;;;;;8.63;3.08;;;15.70;74.10;;;;;;5096798;28;20034;-46
2021/05/31 02:42:00;;;;;;;5.85;3.10;;;15.80;74.20;;;;;;5097088;28;20032;-36
2021/05/31 02:44:26;;;;;;;3.63;2.40;;;15.70;74.10;;;;;;5097150;28;20034;-36
2021/05/31 02:46:51;;;;;;;5.10;2.85;;;15.80;74.10;;;;;;5096820;28;20107;-38
2021/05/31 02:49:17;;;;;;;3.75;2.40;;;15.80;73.90;;;;;;5096925;28;20028;-46
2021/05/31 02:51:44;;;;;;;4.95;3.30;;;15.80;73.80;;;;;;5096880;28;20281;-37
2021/05/31 02:54:12;;;;;;;4.03;2.60;;;15.80;73.90;;;;;;5096729;28;20032;-36
2021/05/31 02:56:38;;;;;;;7.72;4.00;;;15.80;73.80;;;;;;5096641;28;20032;-37
2021/05/31 02:59:03;;;;;;;10.27;3.35;;;15.80;73.80;;;;;;5095443;28;20036;-46
2021/05/31 03:01:29;;;;;;;3.65;2.45;;;15.80;73.90;;;;;;5096567;28;20028;-37
2021/05/31 03:03:54;;;;;;;4.30;2.70;;;15.80;73.70;;;;;;5096648;28;20032;-36
2021/05/31 03:06:20;;;;;;;2.60;2.10;;;15.80;73.50;;;;;;5096414;28;20024;-36
2021/05/31 03:08:46;;;;;;;4.75;2.60;;;15.80;73.50;;;;;;5096341;28;20040;-45
2021/05/31 03:11:11;;;;;;;6.95;2.50;;;15.80;73.60;;;;;;5096344;28;20024;-37
2021/05/31 03:13:37;;;;;;;2.53;2.03;;;15.70;73.60;;;;;;5096300;28;20028;-45
2021/05/31 03:16:03;;;;;;;6.68;2.80;;;15.70;73.80;;;;;;5096242;28;20107;-36
2021/05/31 03:18:29;;;;;;;5.63;2.67;;;15.80;73.70;;;;;;5096076;28;20032;-47
2021/05/31 03:20:55;;;;;;;5.32;2.53;;;15.80;73.60;;;;;;5095998;28;20024;-46
2021/05/31 03:23:21;;;;;;;5.55;2.30;;;15.80;73.60;;;;;;5096178;28;20034;-45
2021/05/31 03:25:46;;;;;;;3.38;2.10;;;15.90;73.60;;;;;;5096310;28;20020;-45
2021/05/31 03:28:12;;;;;;;5.68;2.95;;;15.90;73.60;;;;;;5096005;28;20032;-37
2021/05/31 03:30:38;;;;;;;3.55;2.42;;;15.90;73.20;;;;;;5096026;28;20024;-48
2021/05/31 03:33:04;;;;;;;2.83;2.17;;;15.90;73.30;;;;;;5096235;28;20115;-46
2021/05/31 03:35:30;;;;;;;6.30;2.60;;;15.90;73.10;;;;;;5096182;28;20123;-37
2021/05/31 03:37:55;;;;;;;3.95;2.45;;;15.90;72.90;;;;;;5095576;28;20426;-46
2021/05/31 03:40:22;;;;;;;4.13;2.50;;;15.90;73.00;;;;;;5095779;28;20112;-48
2021/05/31 03:42:52;;;;;;;4.30;2.60;;;15.90;73.10;;;;;;5095639;28;20024;-36
2021/05/31 03:45:18;;;;;;;2.35;2.03;;;15.90;73.00;;;;;;5095619;28;20029;-46
2021/05/31 03:47:44;;;;;;;4.03;2.05;;;15.90;73.00;;;;;;5096273;28;20072;-46
2021/05/31 03:50:10;;;;;;;3.53;2.45;;;15.80;72.90;;;;;;5095872;28;20315;-36
2021/05/31 03:52:36;;;;;;;3.90;2.40;;;15.90;72.80;;;;;;5096137;28;20047;-46
2021/05/31 03:55:03;;;;;;;3.88;2.55;;;15.90;72.80;;;;;;5095573;28;20031;-45
2021/05/31 03:57:28;;;;;;;2.50;2.08;;;15.90;72.90;;;;;;5095712;28;20102;-46
2021/05/31 03:59:54;;;;;;;10.48;2.50;;;15.90;73.00;;;;;;5095773;28;20040;-45
2021/05/31 04:02:20;;;;;;;5.03;2.25;;;15.90;73.20;;;;;;5095738;28;20024;-45
2021/05/31 04:04:49;;;;;;;2.38;2.13;;;15.90;73.10;;;;;;5095346;28;20032;-45
2021/05/31 04:12:45;;;;;;;5.10;2.40;;;15.90;73.20;;;;;;5100328;28;20026;-36
2021/05/31 04:15:11;;;;;;;4.68;2.28;;;15.90;73.10;;;;;;5099422;28;20035;-36
2021/05/31 04:17:37;;;;;;;2.88;2.35;;;15.90;73.10;;;;;;5098710;28;20043;-49
2021/05/31 04:20:03;;;;;;;4.32;2.45;;;15.90;73.10;;;;;;5099414;28;20036;-37
2021/05/31 04:22:29;;;;;;;8.23;3.95;;;15.90;73.00;;;;;;5099715;28;20051;-45
2021/05/31 04:24:54;;;;;;;6.93;3.20;;;15.90;73.10;;;;;;5098157;28;20373;-48
2021/05/31 04:27:20;;;;;;;10.65;5.20;;;15.90;73.00;;;;;;5099523;28;20020;-37
2021/05/31 04:29:46;;;;;;;8.50;3.40;;;15.90;73.10;;;;;;5099242;28;20032;-38
2021/05/31 04:32:13;;;;;;;9.13;3.50;;;15.90;73.20;;;;;;5099640;28;20030;-42
2021/05/31 04:34:39;;;;;;;6.65;3.00;;;15.90;72.80;;;;;;5099407;28;20032;-45
2021/05/31 04:37:05;;;;;;;7.93;2.90;;;15.90;72.80;;;;;;5098639;28;20051;-44
2021/05/31 04:39:30;;;;;;;5.90;2.95;;;15.90;72.60;;;;;;5099027;28;20025;-45
2021/05/31 04:41:56;;;;;;;6.85;3.60;;;15.90;72.40;;;;;;5098944;28;20028;-46
2021/05/31 04:44:21;;;;;;;3.90;3.00;;;15.90;72.40;;;;;;5098689;28;20032;-49
2021/05/31 04:46:47;;;;;;;8.02;3.25;;;15.90;72.30;;;;;;5098775;28;20059;-36
2021/05/31 04:49:13;;;;;;;9.82;2.80;;;15.90;72.30;;;;;;5098573;28;20044;-46
2021/05/31 04:51:38;;;;;;;9.63;3.60;;;15.80;72.00;;;;;;5099013;28;20304;-46
2021/05/31 04:54:04;;;;;;;4.13;2.92;;;15.80;72.10;;;;;;5098443;28;20044;-45
2021/05/31 04:56:30;;;;;;;6.70;4.15;;;15.80;71.90;;;;;;5098391;28;20042;-36
2021/05/31 04:58:56;;;;;;;8.60;3.15;;;15.80;72.00;;;;;;5098239;28;20044;-36
2021/05/31 05:01:22;;;;;;;10.30;3.15;;;15.80;72.10;;;;;;5098465;28;20118;-45
2021/05/31 05:03:48;;;;;;;5.20;3.00;;;15.80;71.70;;;;;;5098420;28;20040;-47
2021/05/31 05:06:13;;;;;;;5.43;2.92;;;15.80;71.70;;;;;;5098678;28;20024;-46
2021/05/31 05:08:39;;;;;;;5.75;3.65;;;15.80;71.70;;;;;;5098189;28;20059;-48
2021/05/31 05:11:05;;;;;;;5.53;3.47;;;15.90;71.80;;;;;;5096498;28;20036;-36
2021/05/31 05:13:30;;;;;;;3.55;2.85;;;15.80;71.60;;;;;;5097834;28;20089;-36
2021/05/31 05:15:57;;;;;;;4.68;3.10;;;15.80;71.80;;;;;;5098167;28;20031;-48
2021/05/31 05:18:22;;;;;;;5.72;3.45;;;15.80;72.00;;;;;;5097962;28;20042;-36
2021/05/31 05:20:48;;;;;;;5.88;2.92;;;15.90;72.10;;;;;;5098060;28;20316;-46
2021/05/31 05:23:14;;;;;;;5.70;2.95;;;15.90;71.80;;;;;;5097023;28;20048;-46
2021/05/31 05:25:39;;;;;;;7.47;4.40;;;15.90;71.80;;;;;;5098182;28;20080;-37
2021/05/31 05:28:05;;;;;;;7.78;3.17;;;15.90;71.90;;;;;;5098051;28;20044;-45
2021/05/31 05:30:34;;;;;;;4.20;2.85;;;16.00;71.80;;;;;;5097909;28;20028;-46
2021/05/31 05:33:00;;;;;;;3.53;2.75;;;16.00;71.60;;;;;;5097661;28;20047;-36
2021/05/31 05:38:08;;;;;;;;;;;16.10;71.40;;;;;;5098056;28;20063;-46
2021/05/31 05:48:21;;;;;;;5.03;3.10;;;16.10;70.90;;;;;;5097527;28;20043;-36
2021/05/31 05:50:47;;;;;;;5.97;2.58;;;16.10;70.70;;;;;;5096887;28;20020;-45
2021/05/31 05:53:12;;;;;;;3.30;2.85;;;16.10;70.30;;;;;;5097146;28;20115;-37
2021/05/31 05:55:38;;;;;;;5.53;2.70;;;16.20;70.20;;;;;;5096910;28;20032;-46
2021/05/31 05:58:04;;;;;;;4.80;2.10;;;16.20;69.90;;;;;;5096474;28;20025;-47
2021/05/31 06:00:32;;;;;;;3.28;1.98;;;16.30;69.70;;;;;;5096715;28;20023;-48
2021/05/31 06:02:58;;;;;;;5.68;2.38;;;16.30;69.30;;;;;;5097115;28;20020;-46
2021/05/31 06:05:24;;;;;;;3.90;2.40;;;16.30;69.30;;;;;;5096835;28;20024;-45
2021/05/31 06:07:50;;;;;;;4.70;2.58;;;16.30;69.70;;;;;;5097526;28;20121;-46
2021/05/31 06:10:17;;;;;;;3.60;2.30;;;16.40;70.00;;;;;;5097074;28;20432;-46
2021/05/31 06:12:43;;;;;;;4.57;2.63;;;16.40;70.00;;;;;;5097353;28;20032;-45
2021/05/31 06:15:11;;;;;;;4.40;2.55;;;16.50;70.00;;;;;;5096547;28;20035;-45
2021/05/31 06:17:37;;;;;;;5.15;2.67;;;16.60;69.40;;;;;;5096587;28;20113;-44
2021/05/31 06:20:04;;;;;;;7.72;2.70;;;16.60;68.80;;;;;;5096401;28;20031;-45
2021/05/31 06:22:38;;;;;;;3.47;1.98;;;16.60;68.80;;;;;;5096873;28;20051;-45
2021/05/31 06:25:06;;;;;;;3.90;2.58;;;16.70;69.20;;;;;;5096132;28;20049;-36
2021/05/31 06:27:32;;;;;;;4.28;2.25;;;16.70;68.50;;;;;;5096541;28;20070;-40
2021/05/31 06:29:58;;;;;;;5.78;2.72;;;16.70;68.60;;;;;;5096200;28;20024;-40
2021/05/31 06:32:23;;;;;;;5.78;2.67;;;16.80;68.80;;;;;;5096813;28;20384;-45
2021/05/31 06:34:49;;;;;;;4.55;2.58;;;16.90;68.70;;;;;;5096410;28;20088;-37
2021/05/31 06:37:15;;;;;;;5.60;2.83;;;16.90;68.50;;;;;;5096268;28;20062;-45
2021/05/31 06:39:40;;;;;;;2.40;2.13;;;16.90;68.50;;;;;;5096225;28;20027;-47
2021/05/31 06:42:06;;;;;;;2.85;2.00;;;17.00;68.00;;;;;;5096632;28;20097;-46
2021/05/31 06:44:32;;;;;;;5.60;2.50;;;17.00;67.60;;;;;;5095527;28;20335;-47
2021/05/31 06:46:58;;;;;;;4.28;2.47;;;17.00;67.30;;;;;;5096262;28;20388;-37
2021/05/31 06:49:23;;;;;;;6.10;2.63;;;17.10;67.60;;;;;;5095987;28;20032;-46
2021/05/31 06:51:49;;;;;;;5.03;2.83;;;17.10;67.60;;;;;;5096364;28;20074;-47
2021/05/31 06:54:15;;;;;;;3.97;2.63;;;17.20;67.50;;;;;;5095676;28;20092;-46
2021/05/31 06:56:41;;;;;;;4.00;2.72;;;17.20;67.50;;;;;;5096202;28;20170;-49
2021/05/31 06:59:07;;;;;;;4.03;2.83;;;17.20;66.90;;;;;;5095440;28;20039;-37
2021/05/31 07:01:33;;;;;;;4.57;2.90;;;17.30;66.80;;;;;;5096394;28;20047;-46
2021/05/31 07:03:58;;;;;;;3.90;2.53;;;17.30;66.50;;;;;;5095034;28;20028;-36
2021/05/31 07:06:24;;;;;;;7.03;2.88;;;17.20;66.00;;;;;;5096317;28;20024;-46
2021/05/31 07:08:50;;;;;;;5.10;3.08;;;17.20;66.00;;;;;;5094858;28;20044;-37
2021/05/31 07:11:18;;;;;;;6.53;2.67;;;17.20;66.20;;;;;;5099904;28;20038;-45
2021/05/31 07:13:46;;;;;;;3.72;3.03;;;17.10;66.00;;;;;;5101067;28;20040;-37
2021/05/31 07:16:15;;;;;;;4.05;2.63;;;17.10;66.30;;;;;;5094431;28;20374;-37
2021/05/31 07:18:42;;;;;;;4.63;2.60;;;17.00;66.20;;;;;;5075393;28;20032;-45
2021/05/31 07:21:08;;;;;;;5.60;2.60;;;17.00;66.30;;;;;;5075578;28;20347;-37
2021/05/31 07:23:37;;;;;;;4.43;2.40;;;16.90;66.30;;;;;;5073938;28;20056;-36
2021/05/31 07:26:05;;;;;;;3.67;2.40;;;16.90;67.20;;;;;;5075659;28;20352;-36
2021/05/31 07:28:31;;;;;;;6.95;3.50;;;16.90;66.90;;;;;;5075016;28;20028;-44
2021/05/31 07:30:57;;;;;;;3.28;2.58;;;16.90;67.00;;;;;;5075111;28;20028;-45
2021/05/31 07:33:23;;;;;;;7.63;3.58;;;16.80;67.10;;;;;;5075415;28;20043;-45
2021/05/31 07:35:49;;;;;;;4.28;2.72;;;16.80;66.90;;;;;;5075209;28;20043;-37
2021/05/31 07:38:15;;;;;;;4.00;2.50;;;16.80;66.70;;;;;;5074926;28;20437;-37
2021/05/31 07:40:41;;;;;;;5.15;2.60;;;16.80;66.60;;;;;;5075336;28;20031;-36
2021/05/31 07:43:07;;;;;;;4.28;2.47;;;16.80;66.60;;;;;;5075220;28;20063;-45
2021/05/31 07:45:32;;;;;;;3.22;2.40;;;16.80;66.60;;;;;;5073145;28;20025;-46
2021/05/31 07:47:58;;;;;;;4.72;2.22;;;16.70;66.50;;;;;;5074755;28;20039;-45
2021/05/31 07:50:24;;;;;;;3.15;2.00;;;16.70;66.20;;;;;;5073844;28;20028;-45
2021/05/31 07:52:50;;;;;;;2.20;1.90;;;16.70;66.20;;;;;;5074963;28;20054;-36
2021/05/31 07:55:17;;;;;;;4.45;2.10;;;16.70;65.80;;;;;;5074119;28;20121;-36
2021/05/31 07:57:45;;;;;;;4.97;2.63;;;16.70;65.70;;;;;;5075009;28;20029;-36
2021/05/31 08:00:14;;;;;;;4.82;2.28;;;16.70;65.70;;;;;;5074524;28;20047;-45
2021/05/31 08:02:43;;;;;;;3.28;2.10;;;16.70;66.00;;;;;;5075538;28;20094;-37
2021/05/31 08:05:10;;;;;;;9.00;3.22;;;16.70;65.90;;;;;;5074949;28;20033;-46
2021/05/31 08:07:36;;;;;;;2.33;1.83;;;16.70;66.10;;;;;;5074774;28;20021;-36
2021/05/31 08:10:02;;;;;;;2.28;2.00;;;16.80;66.00;;;;;;5074494;28;20448;-36
2021/05/31 08:12:28;;;;;;;2.85;1.52;;;16.80;65.70;;;;;;5075124;28;20396;-45
2021/05/31 08:14:54;;;;;;;4.78;1.95;;;16.80;65.80;;;;;;5074307;28;20036;-46
2021/05/31 08:17:20;;;;;;;14.93;10.65;;;16.90;65.60;;;;;;5073669;28;20070;-37
2021/05/31 08:19:45;;;;;;;5.47;3.03;;;16.90;65.60;;;;;;5074727;28;20044;-46
2021/05/31 08:22:11;;;;;;;3.20;1.98;;;17.00;65.20;;;;;;5075094;28;20051;-45
2021/05/31 08:24:37;;;;;;;1.63;1.52;;;17.00;64.40;;;;;;5074823;28;20111;-46
2021/05/31 08:27:03;;;;;;;1.70;1.60;;;17.10;64.10;;;;;;5074836;28;20032;-47
2021/05/31 08:29:29;;;;;;;1.90;1.30;;;17.10;63.70;;;;;;5074689;28;20040;-37
2021/05/31 08:31:56;;;;;;;2.13;1.38;;;17.10;63.90;;;;;;5074776;28;20310;-37
2021/05/31 08:34:24;;;;;;;1.75;1.45;;;17.20;63.40;;;;;;5074950;28;20117;-46
2021/05/31 08:36:50;;;;;;;3.97;2.38;;;17.20;63.20;;;;;;5074316;28;20052;-46
2021/05/31 08:39:15;;;;;;;2.50;1.90;;;17.30;63.20;;;;;;5073196;28;20098;-48
2021/05/31 08:41:42;;;;;;;1.55;1.45;;;17.30;63.30;;;;;;5075138;28;20074;-48
2021/05/31 08:44:08;;;;;;;2.10;1.67;;;17.30;62.70;;;;;;5074770;28;20024;-46
2021/05/31 08:46:35;;;;;;;1.70;1.60;;;17.40;63.20;;;;;;5074754;28;20039;-44
2021/05/31 08:49:01;;;;;;;1.95;1.20;;;17.40;62.70;;;;;;5074471;28;20369;-46
2021/05/31 08:51:27;;;;;;;1.45;1.20;;;17.40;62.00;;;;;;5075138;28;20055;-37
2021/05/31 08:53:53;;;;;;;2.70;1.70;;;17.50;62.10;;;;;;5074202;28;20032;-46
2021/05/31 08:56:18;;;;;;;3.42;1.20;;;17.50;61.90;;;;;;5074560;28;20039;-37
2021/05/31 08:58:47;;;;;;;1.52;1.13;;;17.50;61.80;;;;;;5077528;28;20037;-47
2021/05/31 09:01:13;;;;;;;4.25;1.67;;;17.50;61.70;;;;;;5077483;28;20103;-38
2021/05/31 09:03:39;;;;;;;3.28;1.50;;;17.50;61.90;;;;;;5078312;28;20255;-46
2021/05/31 09:06:09;;;;;;;1.52;1.42;;;17.50;62.10;;;;;;5078112;28;20020;-46
2021/05/31 09:08:35;;;;;;;1.92;1.77;;;17.50;61.90;;;;;;5077680;28;20036;-37
2021/05/31 09:11:02;;;;;;;2.35;1.42;;;17.60;61.70;;;;;;5077636;28;20063;-37
2021/05/31 09:13:32;;;;;;;1.15;1.05;;;17.50;61.90;;;;;;5077746;28;20447;-46
2021/05/31 09:16:26;;;;;;;3.50;2.33;;;17.60;61.90;;;;;;5078009;28;20036;-47
2021/05/31 09:18:55;;;;;;;3.58;2.20;;;17.50;61.60;;;;;;5077686;28;20120;-47
2021/05/31 09:21:23;;;;;;;3.13;1.43;;;17.60;61.90;;;;;;5078063;28;20078;-38
2021/05/31 09:23:54;;;;;;;4.65;2.30;;;17.50;62.40;;;;;;5077249;28;20025;-38
2021/05/31 09:26:20;;;;;;;11.25;2.60;;;17.50;62.10;;;;;;5077957;28;20103;-37
2021/05/31 09:29:00;;;;;;;2.33;2.00;;;17.50;61.70;;;;;;5077067;28;20420;-37
2021/05/31 09:31:28;;;;;;;3.60;1.70;;;17.40;62.10;;;;;;5076559;28;20435;-38
2021/05/31 09:34:07;;;;;;;1.70;1.42;;;17.40;62.20;;;;;;5095184;28;20411;-38
2021/05/31 09:36:47;;;;;;;3.85;2.85;;;17.40;62.30;;;;;;5097312;28;20052;-45
2021/05/31 09:39:12;;;;;;;2.42;1.77;;;17.40;62.50;;;;;;5097451;28;20181;-37
2021/05/31 09:41:38;;;;;;;2.45;1.90;;;17.30;62.40;;;;;;5097485;28;20024;-47
2021/05/31 09:44:06;;;;;;;2.22;1.60;;;17.40;62.20;;;;;;5097717;28;20036;-37
2021/05/31 09:46:42;;;;;;;2.95;1.48;;;17.50;62.10;;;;;;5097366;28;20028;-47
2021/05/31 09:49:16;;;;;;;6.65;2.10;;;17.50;61.80;;;;;;5097356;28;20376;-37
2021/05/31 09:52:01;;;;;;;1.83;1.73;;;17.50;61.50;;;;;;5097306;28;20036;-46
2021/05/31 09:54:35;;;;;;;1.45;1.35;;;17.60;61.10;;;;;;5097482;28;20361;-43
2021/05/31 09:57:13;;;;;;;1.75;1.45;;;17.70;60.50;;;;;;5097035;28;20077;-46
2021/05/31 09:59:40;;;;;;;6.43;2.95;;;17.70;60.50;;;;;;5096763;28;20032;-46
2021/05/31 10:02:08;;;;;;;3.97;1.63;;;17.70;60.70;;;;;;5097102;28;20036;-38
2021/05/31 10:10:19;;;;;;;3.00;1.35;;;17.90;60.10;;;;;;4995250;28;20077;-38
2021/05/31 10:12:45;;;;;;;2.42;1.10;;;17.90;60.00;;;;;;5075358;28;20060;-45
2021/05/31 10:15:12;;;;;;;1.27;1.10;;;18.00;59.80;;;;;;5096893;28;20100;-45
2021/05/31 10:17:38;;;;;;;1.30;1.20;;;18.00;59.60;;;;;;5096759;28;20150;-38
2021/05/31 10:20:05;;;;;;;1.60;1.30;;;18.10;59.90;;;;;;5096773;28;20020;-47
2021/05/31 10:22:33;;;;;;;1.33;1.02;;;18.10;59.70;;;;;;5096628;28;20118;-38
2021/05/31 10:25:05;;;;;;;2.65;1.20;;;18.20;59.30;;;;;;5096598;28;20099;-38
2021/05/31 10:27:33;;;;;;;1.40;1.23;;;18.20;59.20;;;;;;5096528;28;20044;-50
2021/05/31 10:30:01;;;;;;;2.28;1.70;;;18.20;59.20;;;;;;5096475;28;20039;-47
2021/05/31 10:32:27;;;;;;;2.33;1.65;;;18.20;59.20;;;;;;5096464;28;20028;-48
2021/05/31 10:34:53;;;;;;;1.92;1.63;;;18.20;58.90;;;;;;5096695;28;20032;-46
2021/05/31 10:37:30;;;;;;;6.10;1.60;;;18.20;58.80;;;;;;5095944;28;20508;-48
2021/05/31 10:40:11;;;;;;;1.92;1.17;;;18.30;58.20;;;;;;5096459;28;20064;-48
2021/05/31 10:42:49;;;;;;;3.65;1.95;;;18.30;58.30;;;;;;5096614;28;20024;-49
2021/05/31 10:45:18;;;;;;;1.20;1.10;;;18.30;58.90;;;;;;5096503;28;20363;-37
2021/05/31 10:47:55;;;;;;;1.75;1.60;;;18.30;58.80;;;;;;5096637;28;20369;-46
2021/05/31 10:50:26;;;;;;;2.05;1.83;;;18.40;58.80;;;;;;5096291;28;20040;-37
2021/05/31 10:52:52;;;;;;;2.58;1.67;;;18.40;58.40;;;;;;5096215;28;20089;-38
2021/05/31 10:55:18;;;;;;;1.75;1.60;;;18.40;58.40;;;;;;5096080;28;20035;-45
2021/05/31 10:57:46;;;;;;;6.03;3.80;;;18.40;58.20;;;;;;5095831;28;20028;-48
2021/05/31 11:00:21;;;;;;;2.88;1.40;;;18.30;57.90;;;;;;5095873;28;20089;-38
2021/05/31 11:02:47;;;;;;;3.25;1.30;;;18.30;57.50;;;;;;5095816;28;20051;-50
2021/05/31 11:05:13;;;;;;;1.40;1.30;;;18.30;57.70;;;;;;5096161;28;20032;-37
2021/05/31 11:07:40;;;;;;;2.15;1.05;;;18.20;57.80;;;;;;5096083;28;20042;-38
2021/05/31 11:10:19;;;;;;;2.20;1.50;;;18.20;58.20;;;;;;5095993;28;20043;-38
2021/05/31 11:12:45;;;;;;;8.13;1.95;;;18.20;58.20;;;;;;5095432;28;20024;-46
2021/05/31 11:15:13;;;;;;;1.52;1.25;;;18.20;58.20;;;;;;5095185;28;20462;-45
2021/05/31 11:17:51;;;;;;;7.68;1.38;;;18.20;58.00;;;;;;5095807;28;20407;-38
2021/05/31 11:20:18;;;;;;;1.40;1.00;;;18.20;58.00;;;;;;5095093;28;20371;-38
2021/05/31 11:23:03;;;;;;;0.90;0.88;;;18.20;58.10;;;;;;5092156;28;20486;-37
2021/05/31 11:25:30;;;;;;;1.73;0.82;;;18.20;58.10;;;;;;5096231;28;20451;-37
2021/05/31 11:28:01;;;;;;;2.53;1.20;;;18.20;58.10;;;;;;5095251;28;20046;-46
2021/05/31 11:30:33;;;;;;;0.98;0.88;;;18.20;58.30;;;;;;5095845;28;20373;-37
2021/05/31 11:33:03;;;;;;;0.93;0.90;;;18.10;58.40;;;;;;5094741;28;20066;-37
2021/05/31 11:35:30;;;;;;;0.73;0.73;;;18.10;58.00;;;;;;5095497;28;20107;-38
2021/05/31 11:37:56;;;;;;;3.33;1.33;;;18.10;58.10;;;;;;5094950;28;20048;-47
2021/05/31 11:40:36;;;;;;;1.20;1.10;;;18.00;58.20;;;;;;5095432;28;20055;-46
2021/05/31 11:43:04;;;;;;;1.85;1.20;;;17.90;58.30;;;;;;5094875;28;20431;-46
2021/05/31 11:45:34;;;;;;;1.15;1.05;;;17.90;58.50;;;;;;5096102;28;20093;-46
2021/05/31 11:48:09;;;;;;;2.15;1.20;;;17.80;58.60;;;;;;5095242;28;20028;-38
2021/05/31 11:50:39;;;;;;;0.98;0.88;;;17.70;58.70;;;;;;5095782;28;20323;-46
2021/05/31 11:53:07;;;;;;;0.60;0.60;;;17.70;58.70;;;;;;5094991;28;20089;-38
2021/05/31 11:55:33;;;;;;;4.45;2.60;;;17.70;58.90;;;;;;5095100;28;20038;-38
2021/05/31 11:57:59;;;;;;;1.30;1.20;;;17.60;59.00;;;;;;5094022;28;20089;-46
2021/05/31 12:00:30;;;;;;;1.77;0.70;;;17.60;59.20;;;;;;5095083;28;20035;-46
2021/05/31 12:02:56;;;;;;;0.68;0.68;;;17.60;59.20;;;;;;5095159;28;20039;-49
2021/05/31 12:05:38;;;;;;;1.05;0.80;;;17.70;59.10;;;;;;5095660;28;20020;-38
2021/05/31 12:08:10;;;;;;;1.85;0.73;;;17.80;58.60;;;;;;5095280;28;20036;-46
2021/05/31 12:10:37;;;;;;;0.73;0.70;;;17.80;58.30;;;;;;5095235;28;20028;-37
2021/05/31 12:13:03;;;;;;;0.77;0.70;;;17.80;58.80;;;;;;5095198;28;20381;-46
2021/05/31 12:15:30;;;;;;;1.23;0.90;;;17.80;59.40;;;;;;5095240;28;20077;-37
2021/05/31 12:17:56;;;;;;;3.75;0.90;;;17.80;59.40;;;;;;5095333;28;20105;-37
2021/05/31 12:20:26;;;;;;;0.95;0.80;;;17.70;59.90;;;;;;5095263;28;20031;-45
2021/05/31 12:22:52;;;;;;;1.63;0.90;;;17.70;60.10;;;;;;5093669;28;20419;-37
2021/05/31 12:25:18;;;;;;;2.03;0.80;;;17.60;60.10;;;;;;5095229;28;20327;-46
2021/05/31 12:27:44;;;;;;;1.00;0.77;;;17.60;60.50;;;;;;5095686;28;20032;-47
2021/05/31 12:30:13;;;;;;;1.23;1.10;;;17.50;60.30;;;;;;5095243;28;20028;-37
2021/05/31 12:32:39;;;;;;;1.83;1.30;;;17.50;60.30;;;;;;5099092;28;20035;-37
2021/05/31 12:35:07;;;;;;;2.20;1.10;;;17.50;60.30;;;;;;5098933;28;20146;-38
2021/05/31 12:37:36;;;;;;;1.38;0.60;;;17.50;60.60;;;;;;5098396;28;20055;-45
2021/05/31 12:40:11;;;;;;;1.20;1.05;;;17.50;60.70;;;;;;5098741;28;20323;-46
2021/05/31 12:42:37;;;;;;;1.58;1.42;;;17.60;60.30;;;;;;5099589;28;20090;-45
2021/05/31 12:45:08;;;;;;;3.15;0.80;;;17.60;60.40;;;;;;5098750;28;20051;-46
2021/05/31 12:47:40;;;;;;;2.45;1.20;;;17.60;60.40;;;;;;5099169;28;20028;-45
2021/05/31 12:50:12;;;;;;;1.67;0.95;;;17.60;60.50;;;;;;5099088;28;20036;-37
2021/05/31 12:52:42;;;;;;;0.63;0.63;;;17.60;60.80;;;;;;5098853;28;20023;-46
2021/05/31 12:55:19;;;;;;;3.72;1.00;;;17.70;60.40;;;;;;5098567;28;20036;-37
2021/05/31 12:57:47;;;;;;;1.30;0.85;;;17.70;60.40;;;;;;5099251;28;20055;-42
2021/05/31 13:00:16;;;;;;;0.57;0.57;;;17.70;60.30;;;;;;5098388;28;20034;-38
2021/05/31 13:02:47;;;;;;;1.00;0.80;;;17.80;60.10;;;;;;5098923;28;20081;-46
2021/05/31 13:05:15;;;;;;;3.13;0.85;;;17.80;60.00;;;;;;5098159;28;20031;-37
2021/05/31 13:07:48;;;;;;;2.85;2.03;;;17.70;60.00;;;;;;5098740;28;20094;-46
2021/05/31 13:10:18;;;;;;;3.17;2.08;;;17.70;60.10;;;;;;5098179;28;20039;-47
2021/05/31 13:12:52;;;;;;;2.22;1.00;;;17.70;60.30;;;;;;5098645;28;20254;-37
2021/05/31 13:15:19;;;;;;;1.55;0.60;;;17.70;60.10;;;;;;5098073;28;20028;-50